Time;durP1;ratioP1;P1;durP2;ratioP2;P2;SDS_P1;SDS_P2;PMS_P1;PMS_P2;Temp;Humidity;BMP_temperature;BMP_pressure;BME280_temperature;BME280_humidity;BME280_pressure;Samples;Min_cycle;Max_cycle;Signal;HPM_P1;HPM_P2
2021/08/25 00:02:13;;;;;;;13.18;9.55;;;;;;;15.12;100.00;101112.94;5054590;28;20081;-70
2021/08/25 00:04:57;;;;;;;10.18;8.80;;;;;;;15.08;100.00;101101.66;5054836;28;20101;-70
2021/08/25 00:07:41;;;;;;;11.80;9.18;;;;;;;15.06;100.00;101105.50;5040626;28;20092;-70
2021/08/25 00:10:24;;;;;;;13.05;10.43;;;;;;;15.05;100.00;101103.81;5054783;28;20052;-70
2021/08/25 00:13:08;;;;;;;12.90;10.25;;;;;;;15.02;100.00;101098.75;5040388;28;20521;-70
2021/08/25 00:15:52;;;;;;;12.68;9.52;;;;;;;15.03;100.00;101100.44;5040731;28;20044;-69
2021/08/25 00:18:36;;;;;;;12.68;10.50;;;;;;;14.95;100.00;101093.16;5054397;28;20075;-71
2021/08/25 00:21:20;;;;;;;14.07;10.25;;;;;;;14.91;100.00;101094.44;5055409;28;20059;-70
2021/08/25 00:24:04;;;;;;;;;;;;;;;14.90;100.00;101089.25;5040850;28;20552;-70
2021/08/25 00:26:48;;;;;;;12.48;10.00;;;;;;;14.89;100.00;101082.19;5054500;28;19966;-70
2021/08/25 00:29:33;;;;;;;16.73;10.18;;;;;;;14.87;100.00;101078.78;5040379;28;20103;-71
2021/08/25 00:32:17;;;;;;;10.32;9.13;;;;;;;14.90;100.00;101086.56;5055158;28;20051;-70
2021/08/25 00:35:01;;;;;;;14.63;10.98;;;;;;;14.92;100.00;101071.13;5055058;28;20469;-70
2021/08/25 00:37:45;;;;;;;16.10;10.32;;;;;;;14.82;100.00;101067.66;5055246;28;20051;-70
2021/08/25 00:40:29;;;;;;;14.27;10.38;;;;;;;14.75;100.00;101059.38;5054237;28;20062;-70
2021/08/25 00:43:13;;;;;;;13.40;10.13;;;;;;;14.68;100.00;101076.25;5040142;28;20072;-70
2021/08/25 00:45:57;;;;;;;14.48;10.90;;;;;;;14.64;100.00;101074.84;5054399;28;20047;-70
2021/08/25 00:48:41;;;;;;;12.77;10.93;;;;;;;14.62;100.00;101068.78;5054069;28;20055;-69
2021/08/25 00:51:25;;;;;;;14.40;10.93;;;;;;;14.59;100.00;101066.41;5053540;28;20086;-70
2021/08/25 00:54:09;;;;;;;13.48;11.00;;;;;;;14.57;100.00;101065.72;5053960;28;20047;-70
2021/08/25 00:56:53;;;;;;;13.55;10.57;;;;;;;14.55;100.00;101065.88;5053908;28;20063;-70
2021/08/25 00:59:37;;;;;;;13.93;10.45;;;;;;;14.53;100.00;101064.31;5053622;28;20466;-70
2021/08/25 01:03:09;;;;;;;14.45;11.18;;;;;;;14.49;100.00;101057.56;5039682;28;20135;-69
2021/08/25 01:05:55;;;;;;;14.63;11.07;;;;;;;14.46;100.00;101052.50;5053721;28;20548;-70
2021/08/25 01:08:39;;;;;;;15.88;11.45;;;;;;;14.44;100.00;101058.03;5053654;28;20110;-71
2021/08/25 01:11:23;;;;;;;14.43;10.50;;;;;;;14.41;100.00;101057.47;5053548;28;20098;-69
2021/08/25 01:14:07;;;;;;;14.90;11.45;;;;;;;14.37;100.00;101056.94;5053302;28;20106;-68
2021/08/25 01:16:51;;;;;;;12.30;10.55;;;;;;;14.36;100.00;101049.00;5054445;28;20087;-70
2021/08/25 01:19:45;;;;;;;12.63;11.02;;;;;;;14.34;100.00;101043.81;5053709;28;20142;-70
2021/08/25 01:22:30;;;;;;;13.73;11.32;;;;;;;14.32;100.00;101053.88;5053080;28;20052;-69
2021/08/25 01:25:14;;;;;;;11.82;10.38;;;;;;;14.29;100.00;101059.50;5053228;28;20044;-70
2021/08/25 01:28:03;;;;;;;15.30;11.50;;;;;;;14.23;100.00;101054.75;5053343;28;20455;-70
2021/08/25 01:30:47;;;;;;;17.98;11.77;;;;;;;14.21;100.00;101051.38;5039166;28;20568;-70
2021/08/25 01:33:31;;;;;;;15.00;10.82;;;;;;;14.12;100.00;101051.38;5039080;28;20099;-70
2021/08/25 01:36:18;;;;;;;14.60;11.35;;;;;;;14.05;100.00;101052.94;5038970;28;20048;-70
2021/08/25 01:39:03;;;;;;;15.82;12.20;;;;;;;13.97;100.00;101051.00;5053067;28;20056;-70
2021/08/25 01:41:47;;;;;;;;;;;;;;;13.93;100.00;101054.13;5053536;28;20525;-70
2021/08/25 01:44:31;;;;;;;15.57;10.43;;;;;;;13.90;100.00;101054.44;5052721;28;19943;-70
2021/08/25 01:47:15;;;;;;;15.93;10.70;;;;;;;13.84;100.00;101057.69;5053221;28;20047;-70
2021/08/25 01:49:59;;;;;;;12.43;10.82;;;;;;;13.87;100.00;101054.72;5052849;28;20048;-69
2021/08/25 01:52:43;;;;;;;15.30;11.70;;;;;;;13.85;100.00;101052.19;5052455;28;20052;-70
2021/08/25 01:55:27;;;;;;;14.07;11.00;;;;;;;13.68;100.00;101052.94;5053716;28;20087;-70
2021/08/25 01:58:11;;;;;;;12.55;10.25;;;;;;;13.71;100.00;101057.16;5053706;28;20055;-68
2021/08/25 02:00:55;;;;;;;14.73;11.27;;;;;;;13.71;100.00;101057.16;5052502;28;20406;-70
2021/08/25 02:03:39;;;;;;;14.45;11.10;;;;;;;13.60;100.00;101046.63;5052739;28;20410;-70
2021/08/25 02:06:23;;;;;;;13.55;11.02;;;;;;;13.53;100.00;101046.34;5038378;28;20044;-70
2021/08/25 02:09:07;;;;;;;12.15;10.35;;;;;;;13.48;100.00;101050.47;5038772;28;20047;-70
2021/08/25 02:11:51;;;;;;;13.10;10.38;;;;;;;13.46;100.00;101039.88;5038385;28;20110;-70
2021/08/25 02:14:34;;;;;;;13.80;10.90;;;;;;;13.45;100.00;101040.88;5052167;28;20052;-70
2021/08/25 02:17:18;;;;;;;15.32;10.80;;;;;;;13.44;100.00;101041.84;5052236;28;20072;-71
2021/08/25 02:20:04;;;;;;;16.83;11.60;;;;;;;13.49;100.00;101044.09;5053090;28;20414;-70
2021/08/25 02:22:48;;;;;;;15.90;11.32;;;;;;;13.51;100.00;101042.13;5052004;28;20051;-70
2021/08/25 02:25:32;;;;;;;15.30;12.13;;;;;;;13.50;100.00;101035.06;5038286;28;20094;-70
2021/08/25 02:28:16;;;;;;;13.95;10.90;;;;;;;13.48;100.00;101031.72;5052345;28;20051;-70
2021/08/25 02:31:00;;;;;;;15.02;12.00;;;;;;;13.46;100.00;101033.69;5052036;28;20179;-70
2021/08/25 02:33:44;;;;;;;17.45;11.48;;;;;;;13.44;100.00;101035.63;5052257;28;20044;-71
2021/08/25 02:36:28;;;;;;;16.70;11.70;;;;;;;13.44;100.00;101035.63;5038112;28;20095;-70
2021/08/25 02:39:12;;;;;;;17.60;11.82;;;;;;;13.46;100.00;101033.69;5037837;28;20481;-71
2021/08/25 02:41:57;;;;;;;13.50;10.77;;;;;;;13.43;100.00;101037.50;5038058;28;20132;-70
2021/08/25 02:44:40;;;;;;;16.02;12.57;;;;;;;13.42;100.00;101037.63;5037758;28;20055;-69
2021/08/25 02:47:24;;;;;;;15.55;12.30;;;;;;;13.40;100.00;101031.56;5053247;28;20098;-70
2021/08/25 02:50:09;;;;;;;13.85;11.15;;;;;;;13.35;100.00;101031.19;5038025;28;20145;-70
2021/08/25 02:52:53;;;;;;;15.32;11.93;;;;;;;13.29;100.00;101039.78;5052376;28;20383;-70
2021/08/25 02:55:36;;;;;;;15.20;11.73;;;;;;;13.29;100.00;101026.38;5053019;28;20094;-70
2021/08/25 02:58:20;;;;;;;14.38;11.55;;;;;;;13.26;100.00;101027.50;5052032;28;20484;-70
2021/08/25 03:01:04;;;;;;;13.60;11.38;;;;;;;13.24;100.00;101023.31;5038135;28;20051;-70
2021/08/25 03:03:48;;;;;;;13.63;12.10;;;;;;;13.23;100.00;101021.59;5051711;28;20051;-70
2021/08/25 03:06:32;;;;;;;13.95;11.25;;;;;;;13.20;100.00;101016.53;5037618;28;20075;-71
2021/08/25 03:09:17;;;;;;;16.70;11.48;;;;;;;13.17;100.00;101016.81;5051913;28;20052;-70
2021/08/25 03:12:01;;;;;;;18.20;11.45;;;;;;;13.13;100.00;101015.38;5051840;28;20048;-70
2021/08/25 03:14:45;;;;;;;;;;;;;;;13.08;100.00;101020.34;5052159;28;20051;-69
2021/08/25 03:17:29;;;;;;;19.07;11.70;;;;;;;13.03;100.00;101015.41;5052930;28;20436;-70
2021/08/25 03:20:13;;;;;;;12.95;10.80;;;;;;;13.02;100.00;101018.22;5056920;28;20077;-70
2021/08/25 03:22:57;;;;;;;14.75;11.05;;;;;;;12.99;100.00;101010.47;5055392;28;20047;-70
2021/08/25 03:25:41;;;;;;;13.77;11.15;;;;;;;12.99;100.00;101007.81;5055427;28;20129;-70
2021/08/25 03:28:25;;;;;;;13.27;10.73;;;;;;;12.98;100.00;101008.78;5041273;28;20472;-70
2021/08/25 03:31:09;;;;;;;13.95;10.65;;;;;;;12.92;100.00;100999.47;5055497;28;20044;-71
2021/08/25 03:33:53;;;;;;;15.27;11.13;;;;;;;12.88;100.00;100990.06;5056326;28;20047;-70
2021/08/25 03:36:36;;;;;;;14.82;10.95;;;;;;;12.83;100.00;101003.00;5055095;28;20047;-70
2021/08/25 03:39:21;;;;;;;15.75;10.82;;;;;;;12.81;100.00;100998.75;5056381;28;20060;-70
2021/08/25 03:42:04;;;;;;;13.60;10.52;;;;;;;12.80;100.00;100994.41;5055253;28;20571;-70
2021/08/25 03:44:48;;;;;;;17.13;11.30;;;;;;;12.76;100.00;100993.00;5055298;28;20051;-70
2021/08/25 03:47:32;;;;;;;14.45;11.60;;;;;;;12.77;100.00;100991.16;5055249;28;20115;-70
2021/08/25 03:50:16;;;;;;;21.05;11.48;;;;;;;12.76;100.00;100990.31;5054960;28;20052;-68
2021/08/25 03:53:00;;;;;;;15.32;11.45;;;;;;;12.78;100.00;100991.03;5055024;28;20079;-70
2021/08/25 03:55:44;;;;;;;16.05;11.50;;;;;;;12.76;100.00;100984.97;5041085;28;20112;-69
2021/08/25 03:58:28;;;;;;;13.07;10.70;;;;;;;12.74;100.00;100978.06;5055730;28;20517;-70
2021/08/25 04:01:12;;;;;;;14.63;11.15;;;;;;;12.70;100.00;100979.34;5054914;28;20044;-70
2021/08/25 04:03:56;;;;;;;16.65;11.63;;;;;;;12.66;100.00;100973.41;5054726;28;20099;-70
2021/08/25 04:06:40;;;;;;;15.18;10.77;;;;;;;12.62;100.00;100985.38;5041073;28;20139;-70
2021/08/25 04:09:24;;;;;;;15.15;12.02;;;;;;;12.62;100.00;100981.88;5040712;28;20465;-70
2021/08/25 04:12:08;;;;;;;15.95;12.18;;;;;;;12.58;100.00;100981.28;5054462;28;20110;-70
2021/08/25 04:14:52;;;;;;;16.33;11.05;;;;;;;12.56;100.00;100983.28;5040314;28;20122;-70
2021/08/25 04:17:36;;;;;;;17.73;11.73;;;;;;;12.54;100.00;100981.72;5054551;28;20048;-70
2021/08/25 04:20:20;;;;;;;15.18;12.07;;;;;;;12.50;100.00;100983.81;5054649;28;20051;-70
2021/08/25 04:23:04;;;;;;;17.77;12.40;;;;;;;12.51;100.00;100982.81;5054309;28;20099;-70
2021/08/25 04:25:48;;;;;;;16.67;12.38;;;;;;;12.51;100.00;100982.00;5054401;28;20091;-70
2021/08/25 04:28:32;;;;;;;16.40;12.57;;;;;;;12.48;100.00;100990.31;5055133;28;20461;-70
2021/08/25 04:31:15;;;;;;;17.80;12.98;;;;;;;12.45;100.00;100980.72;5054311;28;20106;-70
2021/08/25 04:33:59;;;;;;;19.88;13.43;;;;;;;12.53;100.00;100993.41;5054259;28;20056;-71
2021/08/25 04:36:44;;;;;;;15.82;12.35;;;;;;;12.56;100.00;100982.41;5053980;28;20059;-70
2021/08/25 04:39:28;;;;;;;15.65;11.80;;;;;;;12.52;100.00;100983.69;5054300;28;20056;-70
2021/08/25 04:42:12;;;;;;;19.85;12.68;;;;;;;12.47;100.00;100989.44;5054017;28;20051;-70
2021/08/25 04:44:55;;;;;;;17.13;12.48;;;;;;;12.47;100.00;100997.47;5054172;28;20110;-70
2021/08/25 04:47:40;;;;;;;15.13;12.13;;;;;;;12.45;100.00;100998.59;5054128;28;20118;-70
2021/08/25 04:50:24;;;;;;;21.40;13.13;;;;;;;12.41;100.00;100990.00;5053894;28;20130;-70
2021/08/25 04:53:08;;;;;;;;;;;;;;;12.44;100.00;100991.56;5054114;28;20059;-70
2021/08/25 04:55:52;;;;;;;17.02;12.75;;;;;;;12.47;100.00;100996.63;5057766;22;19951;-69
2021/08/25 04:58:36;;;;;;;16.08;12.43;;;;;;;12.48;100.00;100999.16;5054693;28;20481;-69
2021/08/25 05:01:20;;;;;;;17.80;12.50;;;;;;;12.49;100.00;100997.34;5055139;28;20411;-70
2021/08/25 05:04:04;;;;;;;17.00;12.27;;;;;;;12.53;100.00;101004.09;5054853;28;20182;-70
2021/08/25 05:06:48;;;;;;;15.93;12.50;;;;;;;12.55;100.00;100999.44;5053637;28;20071;-70
2021/08/25 05:09:32;;;;;;;16.42;11.65;;;;;;;12.56;100.00;100993.97;5053845;28;20466;-70
2021/08/25 05:12:17;;;;;;;17.60;12.25;;;;;;;12.62;100.00;100993.41;5053758;28;20043;-69
2021/08/25 05:15:03;;;;;;;14.07;11.93;;;;;;;12.67;100.00;100996.50;5053570;28;20473;-69
2021/08/25 05:17:46;;;;;;;16.45;11.90;;;;;;;12.73;100.00;100995.09;5053507;28;20051;-70
2021/08/25 05:20:30;;;;;;;17.50;12.30;;;;;;;12.79;100.00;101000.72;5053777;28;20520;-69
2021/08/25 05:23:14;;;;;;;16.05;10.63;;;;;;;12.85;100.00;101000.19;5053413;28;20517;-68
2021/08/25 05:25:58;;;;;;;16.25;12.45;;;;;;;12.92;100.00;101007.50;5039141;28;20075;-69
2021/08/25 05:28:42;;;;;;;17.60;12.10;;;;;;;12.90;100.00;101009.47;5039568;28;20076;-69
2021/08/25 05:31:26;;;;;;;16.50;11.55;;;;;;;12.98;100.00;101008.78;5053334;28;20099;-70
2021/08/25 05:34:12;;;;;;;17.92;11.90;;;;;;;13.01;100.00;101008.50;5053277;28;20518;-70
2021/08/25 05:36:56;;;;;;;14.45;10.98;;;;;;;13.13;100.00;101015.38;5052937;28;20040;-69
2021/08/25 05:39:39;;;;;;;16.45;11.93;;;;;;;13.20;100.00;101024.56;5038279;28;20060;-70
2021/08/25 05:42:23;;;;;;;16.15;11.45;;;;;;;13.23;100.00;101018.91;5053391;28;20106;-70
2021/08/25 05:45:08;;;;;;;15.32;11.55;;;;;;;13.30;100.00;101020.03;5038966;28;20044;-69
2021/08/25 05:47:56;;;;;;;19.00;12.30;;;;;;;13.37;100.00;101007.75;5038956;28;20116;-69
2021/08/25 05:50:40;;;;;;;14.75;11.90;;;;;;;13.47;100.00;101019.31;5053062;28;20047;-71
2021/08/25 05:53:24;;;;;;;16.80;11.98;;;;;;;13.46;100.00;101005.06;5038955;28;20060;-69
2021/08/25 05:56:08;;;;;;;13.60;11.02;;;;;;;13.54;100.00;100998.97;5052649;28;20098;-69
2021/08/25 05:58:52;;;;;;;16.02;11.65;;;;;;;13.61;100.00;101002.75;5052970;28;20083;-69
2021/08/25 06:01:36;;;;;;;18.13;11.45;;;;;;;13.69;100.00;101005.56;5052591;28;20506;-69
2021/08/25 06:04:20;;;;;;;14.95;11.32;;;;;;;13.75;100.00;101010.34;5052452;28;20124;-70
2021/08/25 06:07:08;;;;;;;14.48;11.05;;;;;;;13.81;100.00;101001.69;5053339;28;20067;-70
2021/08/25 06:09:52;;;;;;;18.95;11.43;;;;;;;13.90;100.00;101007.03;5038594;28;20540;-69
2021/08/25 06:12:36;;;;;;;17.35;11.70;;;;;;;13.91;100.00;101011.41;5053307;28;20187;-70
2021/08/25 06:15:21;;;;;;;16.80;11.10;;;;;;;14.01;100.00;101009.53;5052616;28;20123;-70
2021/08/25 06:18:04;;;;;;;15.02;11.07;;;;;;;14.14;100.00;101003.78;5052245;28;20110;-69
2021/08/25 06:20:49;;;;;;;14.63;10.75;;;;;;;14.21;100.00;101010.28;5053718;28;20060;-70
2021/08/25 06:23:33;;;;;;;15.65;11.18;;;;;;;14.32;100.00;101002.91;5052196;28;20067;-70
2021/08/25 06:26:17;;;;;;;15.77;11.38;;;;;;;14.40;100.00;101005.66;5053561;28;20055;-70
2021/08/25 06:29:01;;;;;;;16.63;10.35;;;;;;;14.47;100.00;101001.38;5052392;28;20186;-70
2021/08/25 06:31:45;;;;;;;16.55;11.65;;;;;;;14.56;100.00;100995.09;5053290;28;20094;-69
2021/08/25 06:34:29;;;;;;;15.30;11.45;;;;;;;14.68;100.00;100988.50;5053136;28;20465;-69
2021/08/25 06:37:13;;;;;;;11.65;10.25;;;;;;;14.76;100.00;101001.16;5037675;28;20044;-68
2021/08/25 06:39:57;;;;;;;14.30;11.00;;;;;;;14.82;100.00;100996.03;5051839;28;20425;-69
2021/08/25 06:42:42;;;;;;;16.40;11.38;;;;;;;14.94;100.00;100993.94;5051716;28;20414;-69
2021/08/25 06:45:26;;;;;;;15.02;11.02;;;;;;;15.05;100.00;101004.44;5052585;28;20087;-69
2021/08/25 06:48:10;;;;;;;15.05;11.23;;;;;;;15.16;100.00;101004.19;5051546;28;20047;-70
2021/08/25 06:50:54;;;;;;;12.32;9.88;;;;;;;15.27;100.00;101007.50;5052938;28;20052;-70
2021/08/25 06:53:37;;;;;;;13.15;10.65;;;;;;;15.37;100.00;101008.28;5041350;28;20096;-70
2021/08/25 06:56:21;;;;;;;13.02;10.38;;;;;;;15.43;100.00;101004.13;5055292;28;20102;-69
2021/08/25 06:59:05;;;;;;;12.90;10.20;;;;;;;15.56;100.00;100994.63;5056605;28;20136;-70
2021/08/25 07:01:49;;;;;;;13.30;9.60;;;;;;;15.62;100.00;100998.53;5041287;28;20482;-70
2021/08/25 07:04:33;;;;;;;14.00;9.75;;;;;;;15.70;100.00;100989.53;5056542;28;20498;-70
2021/08/25 07:07:17;;;;;;;12.32;9.13;;;;;;;15.80;100.00;100992.94;5055450;28;20064;-70
2021/08/25 07:10:01;;;;;;;16.65;9.32;;;;;;;15.92;100.00;100988.97;5056100;28;20051;-69
2021/08/25 07:12:45;;;;;;;15.77;8.95;;;;;;;16.00;100.00;100990.84;5055932;28;20114;-70
2021/08/25 07:15:29;;;;;;;14.75;9.73;;;;;;;16.10;100.00;100981.66;5055593;28;20048;-70
2021/08/25 07:18:13;;;;;;;13.30;9.80;;;;;;;16.18;100.00;100988.91;5056467;28;20114;-70
2021/08/25 07:20:57;;;;;;;12.77;8.93;;;;;;;16.27;100.00;100978.00;5055195;28;20099;-70
2021/08/25 07:23:40;;;;;;;14.27;9.23;;;;;;;16.39;100.00;100979.41;5055124;28;20106;-70
2021/08/25 07:26:25;;;;;;;10.25;8.35;;;;;;;16.48;99.29;100981.09;5041202;28;20052;-69
2021/08/25 07:29:08;;;;;;;11.88;9.23;;;;;;;16.48;96.81;100983.78;5055551;28;20502;-70
2021/08/25 07:31:53;;;;;;;10.73;8.73;;;;;;;16.57;95.59;100982.81;5055555;28;20052;-70
2021/08/25 07:34:36;;;;;;;11.57;8.13;;;;;;;16.67;96.13;100974.59;5055533;28;20132;-70
2021/08/25 07:37:20;;;;;;;11.05;8.60;;;;;;;16.79;95.38;100978.66;5055216;28;20056;-70
2021/08/25 07:40:06;;;;;;;12.13;8.43;;;;;;;16.85;95.28;100969.88;5056239;28;20073;-70
2021/08/25 07:42:50;;;;;;;10.13;8.82;;;;;;;16.99;94.35;100974.63;5056304;28;20047;-70
2021/08/25 07:45:36;;;;;;;15.05;9.10;;;;;;;17.08;94.28;100974.44;5041156;28;20101;-70
2021/08/25 07:48:20;;;;;;;10.20;7.97;;;;;;;17.16;92.49;100971.75;5055247;28;20099;-70
2021/08/25 07:51:08;;;;;;;10.02;8.18;;;;;;;17.25;91.17;100968.03;5055925;28;20109;-70
2021/08/25 07:53:55;;;;;;;12.35;8.75;;;;;;;17.27;90.02;100957.94;5055220;28;20080;-70
2021/08/25 07:56:39;;;;;;;10.18;7.88;;;;;;;17.34;90.94;100958.94;5040956;28;20071;-70
2021/08/25 07:59:23;;;;;;;8.88;7.40;;;;;;;17.42;91.23;100956.25;5040735;28;20059;-70
2021/08/25 08:02:07;;;;;;;11.77;8.10;;;;;;;17.48;90.05;100966.34;5054745;28;20051;-70
2021/08/25 08:04:51;;;;;;;9.82;8.20;;;;;;;17.67;87.75;100965.09;5054467;28;20051;-70
2021/08/25 08:07:35;;;;;;;10.05;8.02;;;;;;;17.74;87.29;100958.88;5040762;28;20453;-70
2021/08/25 08:10:19;;;;;;;13.10;8.13;;;;;;;17.82;87.38;100958.81;5055873;28;20048;-70
2021/08/25 08:13:03;;;;;;;11.30;8.13;;;;;;;17.91;86.79;100965.06;5055752;28;20043;-70
2021/08/25 08:15:47;;;;;;;11.98;8.50;;;;;;;17.95;87.45;100953.75;5054680;28;20548;-70
2021/08/25 08:18:33;;;;;;;9.63;7.65;;;;;;;18.00;86.30;100951.34;5054649;28;20098;-70
2021/08/25 08:21:17;;;;;;;10.43;7.45;;;;;;;18.10;86.46;100951.97;5054479;28;20486;-70
2021/08/25 08:24:01;;;;;;;11.07;7.65;;;;;;;18.22;86.04;100950.56;5054453;28;20051;-69
2021/08/25 08:26:45;;;;;;;9.32;7.10;;;;;;;18.36;86.51;100952.56;5054646;28;20399;-70
2021/08/25 08:29:30;;;;;;;9.75;7.50;;;;;;;18.46;83.57;100953.19;5054420;28;20104;-70
2021/08/25 08:32:14;;;;;;;12.80;7.95;;;;;;;18.54;81.92;100948.56;5055432;28;20055;-70
2021/08/25 08:34:57;;;;;;;;;;;;;;;18.63;81.44;100943.91;5055748;28;20101;-70
2021/08/25 08:37:42;;;;;;;10.00;6.93;;;;;;;18.78;81.17;100947.53;5040601;28;19924;-70
2021/08/25 08:40:26;;;;;;;9.60;6.80;;;;;;;18.89;79.02;100939.84;5039911;28;20134;-69
2021/08/25 08:43:10;;;;;;;11.55;6.82;;;;;;;19.00;80.36;100941.28;5055200;28;20051;-70
2021/08/25 08:45:55;;;;;;;9.68;7.85;;;;;;;19.06;79.57;100943.22;5054189;28;20059;-70
2021/08/25 08:48:39;;;;;;;8.15;6.90;;;;;;;19.17;78.77;100945.53;5054056;28;20563;-70
2021/08/25 08:51:24;;;;;;;7.90;6.50;;;;;;;19.29;77.49;100944.91;5054165;28;20098;-70
2021/08/25 08:54:08;;;;;;;8.55;6.93;;;;;;;19.36;77.35;100947.72;5054028;28;20099;-70
2021/08/25 08:56:52;;;;;;;7.68;6.38;;;;;;;19.44;75.40;100950.34;5053623;28;20506;-70
2021/08/25 08:59:36;;;;;;;8.75;6.78;;;;;;;19.51;75.81;100946.72;5055224;28;20047;-70
2021/08/25 09:02:40;;;;;;;11.15;6.57;;;;;;;19.61;74.81;100941.03;5054648;28;20122;-70
2021/08/25 09:05:30;;;;;;;9.23;7.00;;;;;;;19.67;74.06;100938.44;5054556;28;20051;-70
2021/08/25 09:08:22;;;;;;;10.90;6.50;;;;;;;19.84;74.60;100936.38;5053525;28;20118;-69
2021/08/25 09:11:15;;;;;;;8.75;6.18;;;;;;;20.02;73.05;100924.13;5039866;28;20047;-70
2021/08/25 09:14:10;;;;;;;6.57;5.80;;;;;;;20.22;72.03;100925.22;5053310;28;20138;-70
2021/08/25 09:17:01;;;;;;;8.90;6.63;;;;;;;20.39;71.21;100920.41;5053139;28;20191;-70
2021/08/25 09:19:45;;;;;;;10.90;5.97;;;;;;;20.60;70.30;100924.00;5053559;28;20071;-70
2021/08/25 09:22:30;;;;;;;8.02;6.15;;;;;;;20.84;70.46;100930.91;5053236;28;20043;-70
2021/08/25 09:25:31;;;;;;;9.07;6.63;;;;;;;20.86;68.49;100926.16;5039416;28;20103;-70
2021/08/25 09:28:19;;;;;;;9.90;5.78;;;;;;;21.08;67.03;100922.38;5053126;28;20051;-70
2021/08/25 09:31:05;;;;;;;10.82;5.90;;;;;;;21.32;67.15;100920.94;5053054;28;20106;-70
2021/08/25 09:33:50;;;;;;;8.57;5.32;;;;;;;21.53;65.70;100911.88;5053303;28;20099;-70
2021/08/25 09:36:34;;;;;;;7.53;5.43;;;;;;;21.63;63.29;100918.63;5052808;28;20553;-70
2021/08/25 09:39:21;;;;;;;7.32;5.72;;;;;;;21.93;64.55;100911.94;5052958;28;20128;-70
2021/08/25 09:42:05;;;;;;;9.15;5.13;;;;;;;22.14;62.50;100914.53;5054077;28;20052;-71
2021/08/25 09:45:01;;;;;;;6.88;5.43;;;;;;;22.23;60.70;100910.59;5053434;28;20441;-70
2021/08/25 09:47:54;;;;;;;12.50;5.53;;;;;;;22.68;59.88;100911.78;5053901;28;20052;-70
2021/08/25 09:50:38;;;;;;;6.65;5.00;;;;;;;23.21;58.76;100908.91;5053018;28;20464;-70
2021/08/25 09:53:22;;;;;;;6.65;5.63;;;;;;;23.80;59.23;100906.94;5052981;28;20048;-70
2021/08/25 09:56:22;;;;;;;;;;;;;;;24.32;54.69;100901.28;5038816;28;20048;-70
2021/08/25 09:59:08;;;;;;;6.05;5.13;;;;;;;25.39;52.60;100902.84;5052731;28;20287;-70
2021/08/25 10:01:53;;;;;;;7.57;5.32;;;;;;;26.60;47.99;100892.56;5053657;28;20048;-70
2021/08/25 10:04:36;;;;;;;5.13;4.55;;;;;;;28.30;44.36;100888.41;5053313;28;20106;-70
2021/08/25 10:07:20;;;;;;;5.40;4.88;;;;;;;29.86;40.37;100890.84;5052605;28;20098;-70
2021/08/25 10:10:05;;;;;;;6.05;4.35;;;;;;;32.05;35.71;100892.06;5052401;28;20132;-71
2021/08/25 10:12:50;;;;;;;8.45;5.22;;;;;;;33.70;32.26;100879.31;5053282;28;20094;-70
2021/08/25 10:15:34;;;;;;;12.52;4.65;;;;;;;34.17;30.72;100879.69;5052187;28;20044;-70
2021/08/25 10:18:29;;;;;;;5.00;4.40;;;;;;;34.37;30.31;100876.84;5053480;28;20121;-70
2021/08/25 10:21:41;;;;;;;4.50;4.07;;;;;;;35.54;28.82;100875.69;5052501;28;20095;-70
2021/08/25 10:24:25;;;;;;;6.30;4.65;;;;;;;36.34;27.31;100881.16;5052073;28;20052;-69
2021/08/25 10:27:10;;;;;;;7.30;4.68;;;;;;;37.01;26.57;100864.00;5051750;28;20052;-70
2021/08/25 10:30:07;;;;;;;5.07;3.95;;;;;;;36.75;25.97;100865.56;5052588;28;20102;-70
2021/08/25 10:32:51;;;;;;;5.68;4.43;;;;;;;37.56;25.34;100860.25;5052116;28;20070;-70
2021/08/25 10:35:36;;;;;;;6.05;4.88;;;;;;;37.31;25.35;100855.16;5052843;28;20052;-70
2021/08/25 10:38:30;;;;;;;6.40;4.97;;;;;;;37.62;25.33;100853.47;5052196;28;20144;-70
2021/08/25 10:41:22;;;;;;;4.50;4.10;;;;;;;38.33;24.16;100845.28;5052184;28;20473;-70
2021/08/25 10:44:07;;;;;;;5.78;4.65;;;;;;;37.96;24.08;100846.38;5038566;28;20101;-70
2021/08/25 10:46:51;;;;;;;5.25;4.78;;;;;;;36.57;25.27;100844.13;5051960;28;20121;-70
2021/08/25 10:49:38;;;;;;;6.05;4.90;;;;;;;37.69;24.37;100835.22;5053153;28;20136;-70
2021/08/25 10:52:29;;;;;;;5.93;4.53;;;;;;;37.12;24.42;100840.47;5052216;28;20198;-70
2021/08/25 10:55:13;;;;;;;5.63;4.63;;;;;;;37.24;25.58;100835.25;5053053;28;20606;-70
2021/08/25 10:57:57;;;;;;;6.05;4.72;;;;;;;36.59;23.81;100841.91;5080312;22;20080;-69
2021/08/25 11:00:41;;;;;;;6.30;4.95;;;;;;;37.20;23.95;100834.22;5051762;28;20124;-69
2021/08/25 11:03:34;;;;;;;7.47;4.90;;;;;;;34.11;26.16;100819.97;5052704;28;20103;-68
2021/08/25 11:06:36;;;;;;;6.00;4.78;;;;;;;33.62;28.06;100826.50;5052627;28;20047;-69
2021/08/25 11:09:30;;;;;;;5.15;4.28;;;;;;;34.56;27.13;100822.47;5052644;28;20522;-69
2021/08/25 11:12:16;;;;;;;4.95;4.40;;;;;;;35.41;25.58;100818.97;5051954;28;20414;-68
2021/08/25 11:15:00;;;;;;;5.18;4.53;;;;;;;34.95;26.36;100811.34;5052747;28;20411;-69
2021/08/25 11:17:44;;;;;;;5.22;4.68;;;;;;;33.71;27.50;100808.22;5051623;28;20098;-68
2021/08/25 11:20:28;;;;;;;7.28;4.70;;;;;;;32.99;28.27;100798.72;5051844;28;20416;-68
2021/08/25 11:23:12;;;;;;;8.05;4.75;;;;;;;33.49;28.11;100803.06;5037379;28;20422;-69
2021/08/25 11:25:56;;;;;;;9.00;4.20;;;;;;;33.27;27.79;100797.03;5051891;28;20044;-69
2021/08/25 11:28:40;;;;;;;4.80;4.07;;;;;;;32.37;28.87;100785.13;5051765;28;20103;-69
2021/08/25 11:31:27;;;;;;;9.38;5.38;;;;;;;32.19;28.81;100782.06;5037404;28;20514;-69
2021/08/25 11:34:12;;;;;;;4.78;4.13;;;;;;;33.23;29.55;100778.53;5052622;28;20055;-68
2021/08/25 11:36:59;;;;;;;7.13;4.50;;;;;;;34.44;27.33;100779.63;5052385;28;20048;-69
2021/08/25 11:40:04;;;;;;;5.63;4.28;;;;;;;35.28;25.52;100782.81;5055333;28;20406;-69
2021/08/25 11:42:48;;;;;;;5.03;4.30;;;;;;;36.54;24.00;100772.50;5054924;28;20052;-69
2021/08/25 11:45:32;;;;;;;5.45;4.50;;;;;;;37.71;22.14;100766.16;5040786;28;20051;-69
2021/08/25 11:48:17;;;;;;;7.22;4.22;;;;;;;39.14;21.08;100764.13;5054867;28;20047;-69
2021/08/25 11:51:01;;;;;;;5.07;4.50;;;;;;;40.58;19.28;100762.53;5055152;28;20586;-69
2021/08/25 11:53:46;;;;;;;5.75;4.93;;;;;;;40.05;18.96;100767.59;5055127;28;20051;-69
2021/08/25 11:56:30;;;;;;;7.22;4.63;;;;;;;39.93;18.98;100774.94;5054823;28;20464;-69
2021/08/25 11:59:14;;;;;;;4.95;4.45;;;;;;;39.62;18.91;100771.41;5056032;28;20093;-69
2021/08/25 12:02:06;;;;;;;5.75;4.55;;;;;;;38.98;19.22;100762.88;5054918;28;20052;-69
2021/08/25 12:04:50;;;;;;;11.40;4.43;;;;;;;38.63;19.93;100761.00;5040891;28;20466;-69
2021/08/25 12:07:34;;;;;;;5.57;4.72;;;;;;;38.39;20.48;100763.28;5054773;28;20083;-69
2021/08/25 12:10:23;;;;;;;5.47;4.93;;;;;;;37.95;20.40;100760.38;5054754;28;20067;-69
2021/08/25 12:13:08;;;;;;;5.57;5.07;;;;;;;36.61;21.42;100757.13;5055610;28;20423;-69
2021/08/25 12:15:52;;;;;;;5.40;4.90;;;;;;;36.37;21.84;100755.56;5055592;28;20048;-69
2021/08/25 12:18:49;;;;;;;5.57;4.78;;;;;;;37.64;21.56;100754.66;5054499;28;20054;-69
2021/08/25 12:21:35;;;;;;;5.38;4.60;;;;;;;38.10;21.30;100751.69;5055573;28;20087;-69
2021/08/25 12:24:19;;;;;;;5.28;4.78;;;;;;;37.74;21.50;100748.03;5055172;28;20476;-68
2021/08/25 12:27:03;;;;;;;5.40;4.38;;;;;;;38.11;20.21;100740.22;5040139;28;20051;-69
2021/08/25 12:29:47;;;;;;;6.38;5.05;;;;;;;38.21;20.37;100741.97;5054501;28;20529;-69
2021/08/25 12:32:42;;;;;;;7.60;5.10;;;;;;;36.59;20.77;100741.91;5040571;28;20087;-69
2021/08/25 12:35:26;;;;;;;7.63;5.03;;;;;;;35.35;22.75;100736.13;5040018;28;20102;-69